createdAt,value
2023-06-11T00:01:53.295Z,57.80
2023-06-11T00:04:26.414Z,57.80
2023-06-11T00:06:57.400Z,57.90
2023-06-11T00:09:24.473Z,58.00
2023-06-11T00:11:51.224Z,58.10
2023-06-11T00:14:18.034Z,58.20
2023-06-11T00:16:44.978Z,58.20
2023-06-11T00:19:13.090Z,58.30
2023-06-11T00:21:44.907Z,58.40
2023-06-11T00:24:15.589Z,58.50
2023-06-11T00:26:42.750Z,58.50
2023-06-11T00:29:09.800Z,58.60
2023-06-11T00:31:36.597Z,58.70
2023-06-11T00:34:03.646Z,58.80
2023-06-11T00:36:30.878Z,58.80
2023-06-11T00:38:57.846Z,58.80
2023-06-11T00:41:30.994Z,58.90
2023-06-11T00:43:58.105Z,58.90
2023-06-11T00:46:25.773Z,59.00
2023-06-11T00:48:53.142Z,59.10
2023-06-11T00:51:22.112Z,59.20
2023-06-11T00:53:48.912Z,59.30
2023-06-11T00:56:18.833Z,59.30
2023-06-11T00:58:46.829Z,59.40
2023-06-11T01:01:17.266Z,59.50
2023-06-11T01:03:44.289Z,59.50
2023-06-11T01:06:12.696Z,59.60
2023-06-11T01:08:42.774Z,59.70
2023-06-11T01:11:11.286Z,59.80
2023-06-11T01:13:38.975Z,59.90
2023-06-11T01:16:07.645Z,59.90
2023-06-11T01:18:38.991Z,60.00
2023-06-11T01:21:09.694Z,59.90
2023-06-11T01:23:36.670Z,59.90
2023-06-11T01:26:09.664Z,60.00
2023-06-11T01:28:37.448Z,60.00
2023-06-11T01:31:06.373Z,60.10
2023-06-11T01:33:36.848Z,60.10
2023-06-11T01:36:06.853Z,60.20
2023-06-11T01:38:43.243Z,60.20
2023-06-11T01:41:16.375Z,60.30
2023-06-11T01:43:44.042Z,60.40
2023-06-11T01:46:11.151Z,60.50
2023-06-11T01:48:38.235Z,60.60
2023-06-11T01:51:05.186Z,60.80
2023-06-11T01:53:32.282Z,60.80
2023-06-11T01:56:00.446Z,60.90
2023-06-11T01:58:27.603Z,61.00
2023-06-11T02:00:54.480Z,61.10
2023-06-11T02:03:21.548Z,61.10
2023-06-11T02:05:48.899Z,61.30
2023-06-11T02:08:16.554Z,61.30
2023-06-11T02:10:46.276Z,61.40
2023-06-11T02:13:13.173Z,61.50
2023-06-11T02:15:40.256Z,61.50
2023-06-11T02:18:07.147Z,61.60
2023-06-11T02:20:34.169Z,61.70
2023-06-11T02:23:02.701Z,61.80
2023-06-11T02:25:29.493Z,61.90
2023-06-11T02:27:57.162Z,62.00
2023-06-11T02:30:25.574Z,62.00
2023-06-11T02:32:52.435Z,62.10
2023-06-11T02:35:19.396Z,62.10
2023-06-11T02:37:46.138Z,62.20
2023-06-11T02:40:13.199Z,62.30
2023-06-11T02:42:40.114Z,62.40
2023-06-11T02:45:08.038Z,62.40
2023-06-11T02:47:35.009Z,62.40
2023-06-11T02:50:01.754Z,62.50
2023-06-11T02:52:29.399Z,62.50
2023-06-11T02:54:56.190Z,62.60
2023-06-11T02:57:23.071Z,62.60
2023-06-11T02:59:49.977Z,62.70
2023-06-11T03:02:16.889Z,62.80
2023-06-11T03:04:43.832Z,62.90
2023-06-11T03:07:11.010Z,62.90
2023-06-11T03:09:39.237Z,63.00
2023-06-11T03:12:06.845Z,63.10
2023-06-11T03:14:34.032Z,63.10
2023-06-11T03:17:00.985Z,63.20
2023-06-11T03:19:27.797Z,63.30
2023-06-11T03:21:59.791Z,63.30
2023-06-11T03:24:27.186Z,63.40
2023-06-11T03:27:01.478Z,63.50
2023-06-11T03:29:28.486Z,63.60
2023-06-11T03:31:57.879Z,63.60
2023-06-11T03:34:25.018Z,63.70
2023-06-11T03:36:53.904Z,64.30
2023-06-11T03:39:20.680Z,63.80
2023-06-11T03:41:50.869Z,63.90
2023-06-11T03:44:19.367Z,63.90
2023-06-11T03:46:47.717Z,64.00
2023-06-11T03:49:14.582Z,64.10
2023-06-11T03:51:41.360Z,64.20
2023-06-11T03:54:08.084Z,64.20
2023-06-11T03:56:34.944Z,64.20
2023-06-11T03:59:01.868Z,64.30
2023-06-11T04:01:29.247Z,64.40
2023-06-11T04:03:56.181Z,64.50
2023-06-11T04:06:23.218Z,64.50
2023-06-11T04:08:50.070Z,64.60
2023-06-11T04:11:16.879Z,64.60
2023-06-11T04:13:50.255Z,64.70
2023-06-11T04:16:18.551Z,64.70
2023-06-11T04:18:45.594Z,64.70
2023-06-11T04:21:12.391Z,64.80
2023-06-11T04:23:39.535Z,64.80
2023-06-11T04:26:09.175Z,64.90
2023-06-11T04:28:38.398Z,64.90
2023-06-11T04:31:05.502Z,65.00
2023-06-11T04:33:37.561Z,65.00
2023-06-11T04:36:06.580Z,65.10
2023-06-11T04:38:33.670Z,65.10
2023-06-11T04:41:01.183Z,65.10
2023-06-11T04:43:29.041Z,65.10
2023-06-11T04:45:58.996Z,65.10
2023-06-11T04:48:28.586Z,65.10
2023-06-11T04:50:55.892Z,65.10
2023-06-11T04:53:28.746Z,65.20
2023-06-11T04:55:56.777Z,65.10
2023-06-11T04:58:25.081Z,65.20
2023-06-11T05:00:53.105Z,65.20
2023-06-11T05:03:22.165Z,65.30
2023-06-11T05:05:52.478Z,65.20
2023-06-11T05:08:25.555Z,65.30
2023-06-11T05:10:58.467Z,65.30
2023-06-11T05:13:26.525Z,65.30
2023-06-11T05:15:57.768Z,65.30
2023-06-11T05:18:26.671Z,65.40
2023-06-11T05:20:55.496Z,65.40
2023-06-11T05:23:29.572Z,65.40
2023-06-11T05:26:19.002Z,65.40
2023-06-11T05:28:47.465Z,65.40
2023-06-11T05:31:14.620Z,65.30
2023-06-11T05:33:45.737Z,65.40
2023-06-11T05:36:13.496Z,65.30
2023-06-11T05:38:40.820Z,65.40
2023-06-11T05:41:08.075Z,65.40
2023-06-11T05:43:35.272Z,65.40
2023-06-11T05:46:02.289Z,65.50
2023-06-11T05:48:30.388Z,65.40
2023-06-11T05:50:57.322Z,65.40
2023-06-11T05:53:24.848Z,65.50
2023-06-11T05:55:55.236Z,65.50
2023-06-11T05:58:23.457Z,65.50
2023-06-11T06:00:51.240Z,65.60
2023-06-11T06:03:18.311Z,65.50
2023-06-11T06:05:45.342Z,65.50
2023-06-11T06:08:12.551Z,65.40
2023-06-11T06:10:39.572Z,65.50
2023-06-11T06:13:06.542Z,65.40
2023-06-11T06:15:33.513Z,65.40
2023-06-11T06:18:01.202Z,65.40
2023-06-11T06:20:37.050Z,65.40
2023-06-11T06:23:05.860Z,65.40
2023-06-11T06:25:38.815Z,65.30
2023-06-11T06:28:07.159Z,65.30
2023-06-11T06:30:34.233Z,65.20
2023-06-11T06:33:01.733Z,65.20
2023-06-11T06:35:30.782Z,65.20
2023-06-11T06:37:58.020Z,65.20
2023-06-11T06:40:25.178Z,65.20
2023-06-11T06:42:53.613Z,65.20
2023-06-11T06:45:28.606Z,65.20
2023-06-11T06:47:58.010Z,65.10
2023-06-11T06:50:25.175Z,65.10
2023-06-11T06:52:52.135Z,65.10
2023-06-11T06:55:19.041Z,65.00
2023-06-11T06:57:46.135Z,65.00
2023-06-11T07:00:13.624Z,64.90
2023-06-11T07:02:40.809Z,64.90
2023-06-11T07:05:08.211Z,64.80
2023-06-11T07:07:35.223Z,64.80
2023-06-11T07:10:02.188Z,64.80
2023-06-11T07:12:30.621Z,64.70
2023-06-11T07:14:57.936Z,64.70
2023-06-11T07:17:26.995Z,64.70
2023-06-11T07:19:54.767Z,64.70
2023-06-11T07:22:23.649Z,64.70
2023-06-11T07:24:50.410Z,64.60
2023-06-11T07:27:18.634Z,64.50
2023-06-11T07:29:46.754Z,64.40
2023-06-11T07:32:13.573Z,64.90
2023-06-11T07:34:41.509Z,64.20
2023-06-11T07:37:08.306Z,64.10
2023-06-11T07:39:35.251Z,63.80
2023-06-11T07:42:02.821Z,63.70
2023-06-11T07:44:29.625Z,63.50
2023-06-11T07:46:56.654Z,63.40
2023-06-11T07:49:23.474Z,63.40
2023-06-11T07:51:50.661Z,63.50
2023-06-11T07:54:18.083Z,63.50
2023-06-11T07:56:47.916Z,63.50
2023-06-11T07:59:15.063Z,63.60
2023-06-11T08:01:42.950Z,63.60
2023-06-11T08:04:09.825Z,63.60
2023-06-11T08:06:37.148Z,63.70
2023-06-11T08:09:04.502Z,63.80
2023-06-11T08:11:31.324Z,63.80
2023-06-11T08:13:58.302Z,63.90
2023-06-11T08:16:25.047Z,64.10
2023-06-11T08:18:51.938Z,64.10
2023-06-11T08:21:18.747Z,64.10
2023-06-11T08:23:45.833Z,64.00
2023-06-11T08:26:13.477Z,63.90
2023-06-11T08:28:40.437Z,63.80
2023-06-11T08:31:07.634Z,63.60
2023-06-11T08:33:34.624Z,63.50
2023-06-11T08:36:01.614Z,63.30
2023-06-11T08:38:29.374Z,63.20
2023-06-11T08:40:56.335Z,63.10
2023-06-11T08:43:23.121Z,63.10
2023-06-11T08:45:49.890Z,62.90
2023-06-11T08:48:17.583Z,62.90
2023-06-11T08:50:44.402Z,62.80
2023-06-11T08:53:13.923Z,62.60
2023-06-11T08:55:42.343Z,62.50
2023-06-11T08:58:09.659Z,62.50
2023-06-11T09:00:38.043Z,62.30
2023-06-11T09:03:05.246Z,62.20
2023-06-11T09:05:32.233Z,62.10
2023-06-11T09:07:58.968Z,62.00
2023-06-11T09:10:25.976Z,62.50
2023-06-11T09:12:54.058Z,61.90
2023-06-11T09:15:22.177Z,61.90
2023-06-11T09:17:49.054Z,61.80
2023-06-11T09:20:16.518Z,61.60
2023-06-11T09:22:43.715Z,61.60
2023-06-11T09:25:11.761Z,61.40
2023-06-11T09:27:39.517Z,61.40
2023-06-11T09:30:13.494Z,61.30
2023-06-11T09:32:41.253Z,61.20
2023-06-11T09:35:09.367Z,61.10
2023-06-11T09:37:39.794Z,61.00
2023-06-11T09:40:08.247Z,60.90
2023-06-11T09:42:35.498Z,60.80
2023-06-11T09:45:02.584Z,60.70
2023-06-11T09:47:29.751Z,60.70
2023-06-11T09:49:56.705Z,60.60
2023-06-11T09:52:24.147Z,60.50
2023-06-11T09:54:51.827Z,60.30
2023-06-11T09:57:18.670Z,60.30
2023-06-11T09:59:45.583Z,60.10
2023-06-11T10:02:12.312Z,60.00
2023-06-11T10:04:39.089Z,59.80
2023-06-11T10:07:06.087Z,59.70
2023-06-11T10:09:32.808Z,59.60
2023-06-11T10:11:59.780Z,59.40
2023-06-11T10:14:26.566Z,59.40
2023-06-11T10:16:55.730Z,59.30
2023-06-11T10:19:26.033Z,59.30
2023-06-11T10:21:53.653Z,59.90
2023-06-11T10:24:21.465Z,59.40
2023-06-11T10:27:03.486Z,59.50
2023-06-11T10:29:30.361Z,59.50
2023-06-11T10:31:57.204Z,59.60
2023-06-11T10:34:24.116Z,59.70
2023-06-11T10:36:51.041Z,59.80
2023-06-11T10:39:21.848Z,59.90
2023-06-11T10:41:48.655Z,59.90
2023-06-11T10:44:15.719Z,59.90
2023-06-11T10:47:01.534Z,59.80
2023-06-11T10:49:28.654Z,59.70
2023-06-11T10:51:55.627Z,59.60
2023-06-11T10:54:26.703Z,60.10
2023-06-11T10:56:53.905Z,59.40
2023-06-11T10:59:23.890Z,59.20
2023-06-11T11:01:54.202Z,59.00
2023-06-11T11:04:22.680Z,58.80
2023-06-11T11:06:50.096Z,58.70
2023-06-11T11:09:25.767Z,58.70
2023-06-11T11:11:53.429Z,58.60
2023-06-11T11:14:20.247Z,58.60
2023-06-11T11:16:47.987Z,58.60
2023-06-11T11:19:16.652Z,58.50
2023-06-11T11:21:50.429Z,58.40
2023-06-11T11:24:17.410Z,58.10
2023-06-11T11:26:44.369Z,58.00
2023-06-11T11:29:11.205Z,58.10
2023-06-11T11:31:38.051Z,58.20
2023-06-11T11:34:04.858Z,58.50
2023-06-11T11:36:32.437Z,58.70
2023-06-11T11:39:09.328Z,58.80
2023-06-11T11:41:44.390Z,58.90
2023-06-11T11:44:11.432Z,59.00
2023-06-11T11:46:38.300Z,59.00
2023-06-11T11:49:05.127Z,58.90
2023-06-11T11:51:32.049Z,58.60
2023-06-11T11:54:01.499Z,58.20
2023-06-11T11:56:36.438Z,58.00
2023-06-11T11:59:03.400Z,57.60
2023-06-11T12:01:38.135Z,57.20
2023-06-11T12:04:06.539Z,56.80
2023-06-11T12:06:33.758Z,56.70
2023-06-11T12:09:01.649Z,56.70
2023-06-11T12:11:28.736Z,56.60
2023-06-11T12:13:55.606Z,56.60
2023-06-11T12:16:23.586Z,56.60
2023-06-11T12:18:50.435Z,56.50
2023-06-11T12:21:17.245Z,56.50
2023-06-11T12:23:44.619Z,56.20
2023-06-11T12:26:11.455Z,56.00
2023-06-11T12:28:38.331Z,55.80
2023-06-11T12:31:05.167Z,55.60
2023-06-11T12:33:32.093Z,55.40
2023-06-11T12:35:58.827Z,55.30
2023-06-11T12:38:26.105Z,55.40
2023-06-11T12:40:53.455Z,55.50
2023-06-11T12:43:20.789Z,55.60
2023-06-11T12:45:47.684Z,55.80
2023-06-11T12:48:16.049Z,56.00
2023-06-11T12:50:42.983Z,56.10
2023-06-11T12:53:09.723Z,56.10
2023-06-11T12:55:36.690Z,56.10
2023-06-11T12:58:05.213Z,56.10
2023-06-11T13:00:32.245Z,56.10
2023-06-11T13:03:00.251Z,55.90
2023-06-11T13:05:27.884Z,55.80
2023-06-11T13:07:55.160Z,55.50
2023-06-11T13:10:24.530Z,55.40
2023-06-11T13:12:53.245Z,55.40
2023-06-11T13:15:20.081Z,55.60
2023-06-11T13:17:46.922Z,55.80
2023-06-11T13:20:14.267Z,56.20
2023-06-11T13:22:42.433Z,56.50
2023-06-11T13:25:12.170Z,56.90
2023-06-11T13:27:38.921Z,57.20
2023-06-11T13:30:10.664Z,57.50
2023-06-11T13:32:38.257Z,57.60
2023-06-11T13:35:05.434Z,57.80
2023-06-11T13:37:32.423Z,58.00
2023-06-11T13:39:59.330Z,58.00
2023-06-11T13:42:26.082Z,58.20
2023-06-11T13:44:52.897Z,58.20
2023-06-11T13:47:19.723Z,58.20
2023-06-11T13:49:46.441Z,58.20
2023-06-11T13:52:13.180Z,57.90
2023-06-11T13:54:41.151Z,57.30
2023-06-11T13:57:07.959Z,56.80
2023-06-11T13:59:34.811Z,56.40
2023-06-11T14:02:02.740Z,55.90
2023-06-11T14:04:29.868Z,55.40
2023-06-11T14:06:56.705Z,55.40
2023-06-11T14:09:24.351Z,55.40
2023-06-11T14:11:51.123Z,55.30
2023-06-11T14:14:17.844Z,55.20
2023-06-11T14:16:44.728Z,55.30
2023-06-11T14:19:11.725Z,55.50
2023-06-11T14:21:38.530Z,56.00
2023-06-11T14:24:05.556Z,56.40
2023-06-11T14:26:32.333Z,56.70
2023-06-11T14:28:59.127Z,57.00
2023-06-11T14:31:26.113Z,57.20
2023-06-11T14:33:53.128Z,57.40
2023-06-11T14:36:19.998Z,57.50
2023-06-11T14:38:46.767Z,57.70
2023-06-11T14:41:13.528Z,57.70
2023-06-11T14:43:40.521Z,57.80
2023-06-11T14:46:07.406Z,58.00
2023-06-11T14:48:34.184Z,58.10
2023-06-11T14:51:05.567Z,58.20
2023-06-11T14:53:32.685Z,58.40
2023-06-11T14:56:02.686Z,58.40
2023-06-11T14:58:29.464Z,58.50
2023-06-11T15:00:56.270Z,58.50
2023-06-11T15:03:23.034Z,58.60
2023-06-11T15:05:49.871Z,58.70
2023-06-11T15:08:16.827Z,58.70
2023-06-11T15:10:43.582Z,58.80
2023-06-11T15:13:10.379Z,58.80
2023-06-11T15:15:37.187Z,58.80
2023-06-11T15:18:06.241Z,58.80
2023-06-11T15:20:33.162Z,58.80
2023-06-11T15:22:59.933Z,58.70
2023-06-11T15:25:29.146Z,58.70
2023-06-11T15:27:56.090Z,58.70
2023-06-11T15:30:23.053Z,58.60
2023-06-11T15:32:49.934Z,58.50
2023-06-11T15:35:16.760Z,58.30
2023-06-11T15:37:43.624Z,58.20
2023-06-11T15:40:13.544Z,58.30
2023-06-11T15:42:40.641Z,58.20
2023-06-11T15:45:09.882Z,58.20
2023-06-11T15:47:37.465Z,58.10
2023-06-11T15:50:04.411Z,58.10
2023-06-11T15:52:31.182Z,58.00
2023-06-11T15:54:57.982Z,57.90
2023-06-11T15:57:24.892Z,57.90
2023-06-11T15:59:51.674Z,57.80
2023-06-11T16:02:18.585Z,57.80
2023-06-11T16:04:48.503Z,57.80
2023-06-11T16:07:15.815Z,57.70
2023-06-11T16:09:42.579Z,57.70
2023-06-11T16:12:09.504Z,57.60
2023-06-11T16:14:36.354Z,57.60
2023-06-11T16:17:03.170Z,57.60
2023-06-11T16:19:29.939Z,57.60
2023-06-11T16:21:56.691Z,58.20
2023-06-11T16:24:23.686Z,57.60
2023-06-11T16:26:50.569Z,57.60
2023-06-11T16:29:17.295Z,57.60
2023-06-11T16:31:44.348Z,57.60
2023-06-11T16:34:12.420Z,57.50
2023-06-11T16:36:39.535Z,57.50
2023-06-11T16:39:21.740Z,57.50
2023-06-11T16:41:53.140Z,57.50
2023-06-11T16:44:19.933Z,57.40
2023-06-11T16:46:46.756Z,57.30
2023-06-11T16:49:13.719Z,57.20
2023-06-11T16:51:40.609Z,57.20
2023-06-11T16:54:07.864Z,57.20
2023-06-11T16:56:37.149Z,57.20
2023-06-11T16:59:03.975Z,57.20
2023-06-11T17:01:30.859Z,57.30
2023-06-11T17:03:57.799Z,57.40
2023-06-11T17:06:26.636Z,57.40
2023-06-11T17:08:53.376Z,57.50
2023-06-11T17:11:20.169Z,57.60
2023-06-11T17:13:46.978Z,57.60
2023-06-11T17:16:14.379Z,57.70
2023-06-11T17:18:41.420Z,57.70
2023-06-11T17:21:08.323Z,57.70
2023-06-11T17:23:35.367Z,57.80
2023-06-11T17:26:02.319Z,57.80
2023-06-11T17:28:29.218Z,57.90
2023-06-11T17:30:56.165Z,58.00
2023-06-11T17:33:23.123Z,58.10
2023-06-11T17:35:50.895Z,58.00
2023-06-11T17:38:17.837Z,58.10
2023-06-11T17:40:44.766Z,58.10
2023-06-11T17:43:11.545Z,58.10
2023-06-11T17:45:38.330Z,58.10
2023-06-11T17:48:05.586Z,58.20
2023-06-11T17:50:32.455Z,58.20
2023-06-11T17:52:59.242Z,58.20
2023-06-11T17:55:27.239Z,58.30
2023-06-11T17:57:54.849Z,58.30
2023-06-11T18:00:21.733Z,58.40
2023-06-11T18:02:48.669Z,58.40
2023-06-11T18:05:15.795Z,58.40
2023-06-11T18:07:46.363Z,58.40
2023-06-11T18:10:15.070Z,58.50
2023-06-11T18:12:42.167Z,58.50
2023-06-11T18:15:22.898Z,58.60
2023-06-11T18:17:56.020Z,58.70
2023-06-11T18:20:23.146Z,58.80
2023-06-11T18:22:49.928Z,58.90
2023-06-11T18:25:16.917Z,59.00
2023-06-11T18:27:43.837Z,59.20
2023-06-11T18:30:11.331Z,59.30
2023-06-11T18:32:38.732Z,59.50
2023-06-11T18:35:06.026Z,59.60
2023-06-11T18:37:33.063Z,59.70
2023-06-11T18:40:00.265Z,59.90
2023-06-11T18:42:27.129Z,60.00
2023-06-11T18:44:53.874Z,60.10
2023-06-11T18:47:23.178Z,60.10
2023-06-11T18:49:50.028Z,60.30
2023-06-11T18:52:16.810Z,60.20
2023-06-11T18:54:43.660Z,60.30
2023-06-11T18:57:11.855Z,60.40
2023-06-11T18:59:38.637Z,60.60
2023-06-11T19:02:06.868Z,60.60
2023-06-11T19:04:33.634Z,60.70
2023-06-11T19:07:00.493Z,60.60
2023-06-11T19:09:27.290Z,61.20
2023-06-11T19:11:54.139Z,60.70
2023-06-11T19:14:20.997Z,60.80
2023-06-11T19:16:49.383Z,60.90
2023-06-11T19:19:17.407Z,61.10
2023-06-11T19:21:44.703Z,61.20
2023-06-11T19:24:11.607Z,61.30
2023-06-11T19:26:38.658Z,61.40
2023-06-11T19:29:05.540Z,61.40
2023-06-11T19:31:32.761Z,61.40
2023-06-11T19:33:59.690Z,61.50
2023-06-11T19:36:26.510Z,61.60
2023-06-11T19:38:53.490Z,61.80
2023-06-11T19:41:20.282Z,61.90
2023-06-11T19:43:47.083Z,62.00
2023-06-11T19:46:13.944Z,62.00
2023-06-11T19:48:41.419Z,62.10
2023-06-11T19:51:10.280Z,62.40
2023-06-11T19:53:39.347Z,62.50
2023-06-11T19:56:08.281Z,62.60
2023-06-11T19:58:35.821Z,62.80
2023-06-11T20:01:02.904Z,63.10
2023-06-11T20:03:30.540Z,63.20
2023-06-11T20:05:57.364Z,63.30
2023-06-11T20:08:24.484Z,63.40
2023-06-11T20:10:58.747Z,63.50
2023-06-11T20:13:28.996Z,63.70
2023-06-11T20:15:56.754Z,63.70
2023-06-11T20:18:23.581Z,63.80
2023-06-11T20:20:50.712Z,64.00
2023-06-11T20:23:17.612Z,64.20
2023-06-11T20:25:47.241Z,64.40
2023-06-11T20:28:14.024Z,64.60
2023-06-11T20:30:40.968Z,64.80
2023-06-11T20:33:07.919Z,64.90
2023-06-11T20:35:34.698Z,64.90
2023-06-11T20:38:01.473Z,65.00
2023-06-11T20:40:28.392Z,65.00
2023-06-11T20:42:55.388Z,65.00
2023-06-11T20:45:22.779Z,65.30
2023-06-11T20:47:50.386Z,65.40
2023-06-11T20:50:17.366Z,65.40
2023-06-11T20:52:44.147Z,65.50
2023-06-11T20:55:11.130Z,65.40
2023-06-11T20:57:38.037Z,65.40
2023-06-11T21:00:05.087Z,65.40
2023-06-11T21:02:31.983Z,65.50
2023-06-11T21:04:58.828Z,65.50
2023-06-11T21:07:26.623Z,65.60
2023-06-11T21:09:55.434Z,65.80
2023-06-11T21:12:22.565Z,65.90
2023-06-11T21:14:49.366Z,66.10
2023-06-11T21:17:16.128Z,66.10
2023-06-11T21:19:42.990Z,66.20
2023-06-11T21:22:09.921Z,66.30
2023-06-11T21:24:36.874Z,66.30
2023-06-11T21:27:03.798Z,66.40
2023-06-11T21:29:30.678Z,66.40
2023-06-11T21:31:57.707Z,66.50
2023-06-11T21:34:24.837Z,66.60
2023-06-11T21:36:51.575Z,66.70
2023-06-11T21:39:18.540Z,66.80
2023-06-11T21:41:45.340Z,66.80
2023-06-11T21:44:14.236Z,67.00
2023-06-11T21:46:41.562Z,67.00
2023-06-11T21:49:08.345Z,67.20
2023-06-11T21:51:35.132Z,67.20
2023-06-11T21:54:02.434Z,67.30
2023-06-11T21:56:29.320Z,67.30
2023-06-11T21:58:56.104Z,67.30
2023-06-11T22:01:22.934Z,67.40
2023-06-11T22:03:49.809Z,67.40
2023-06-11T22:06:16.697Z,67.50
2023-06-11T22:08:45.662Z,67.50
2023-06-11T22:11:12.472Z,67.60
2023-06-11T22:13:40.185Z,67.70
2023-06-11T22:16:07.066Z,67.90
2023-06-11T22:18:34.114Z,68.00
2023-06-11T22:21:01.064Z,68.10
2023-06-11T22:23:45.280Z,68.20
2023-06-11T22:26:14.581Z,68.30
2023-06-11T22:28:41.411Z,68.30
2023-06-11T22:31:08.267Z,68.40
2023-06-11T22:33:35.036Z,68.40
2023-06-11T22:36:01.784Z,68.40
2023-06-11T22:38:28.564Z,68.40
2023-06-11T22:40:55.449Z,68.40
2023-06-11T22:43:22.216Z,68.40
2023-06-11T22:45:48.947Z,68.40
2023-06-11T22:48:15.714Z,68.50
2023-06-11T22:50:42.501Z,68.60
2023-06-11T22:53:14.688Z,68.60
2023-06-11T22:55:41.974Z,68.80
2023-06-11T22:58:11.449Z,68.80
2023-06-11T23:00:38.374Z,69.00
2023-06-11T23:03:06.634Z,69.20
2023-06-11T23:05:33.454Z,69.10
2023-06-11T23:08:01.052Z,69.20
2023-06-11T23:10:27.804Z,69.30
2023-06-11T23:12:54.581Z,69.30
2023-06-11T23:15:22.007Z,69.30
2023-06-11T23:17:54.666Z,69.30
2023-06-11T23:20:28.474Z,69.30
2023-06-11T23:22:57.425Z,69.30
2023-06-11T23:25:26.443Z,69.30
2023-06-11T23:27:53.688Z,69.30
2023-06-11T23:30:20.539Z,69.30
2023-06-11T23:32:48.407Z,69.40
2023-06-11T23:35:15.665Z,69.50
2023-06-11T23:37:43.070Z,69.50
2023-06-11T23:40:12.005Z,69.60
2023-06-11T23:42:39.028Z,69.70
2023-06-11T23:45:08.166Z,69.70
2023-06-11T23:47:35.626Z,69.90
2023-06-11T23:50:02.696Z,69.90
2023-06-11T23:52:29.509Z,70.00
2023-06-11T23:54:57.642Z,70.00
2023-06-11T23:57:24.723Z,70.20
2023-06-11T23:59:51.655Z,70.20
